Time;durP1;ratioP1;P1;durP2;ratioP2;P2;SDS_P1;SDS_P2;PMS_P1;PMS_P2;Temp;Humidity;BMP_temperature;BMP_pressure;BME280_temperature;BME280_humidity;BME280_pressure;Samples;Min_cycle;Max_cycle;Signal;HPM_P1;HPM_P2
2023/09/08 00:01:22;;;;;;;6.60;5.78;;;;;;;;;;4970020;28;20029;-82
2023/09/08 00:03:47;;;;;;;7.07;5.65;;;;;;;;;;4971679;28;20394;-86
2023/09/08 00:06:13;;;;;;;10.30;6.10;;;;;;;;;;4983660;28;20065;-86
2023/09/08 00:08:38;;;;;;;9.73;7.10;;;;;;;;;;4965839;28;20163;-86
2023/09/08 00:11:04;;;;;;;8.00;6.22;;;;;;;;;;4969089;28;20022;-85
2023/09/08 00:13:30;;;;;;;9.68;6.07;;;;;;;;;;4972505;28;20026;-86
2023/09/08 00:15:55;;;;;;;8.52;6.10;;;;;;;;;;4984002;28;20391;-85
2023/09/08 00:18:21;;;;;;;8.70;6.22;;;;;;;;;;4986748;28;20042;-84
2023/09/08 00:20:46;;;;;;;8.73;6.00;;;;;;;;;;4968785;28;20033;-85
2023/09/08 00:23:11;;;;;;;7.00;5.70;;;;;;;;;;4969216;28;20072;-85
2023/09/08 00:25:37;;;;;;;7.53;6.22;;;;;;;;;;4984873;28;20049;-85
2023/09/08 00:28:03;;;;;;;10.73;6.90;;;;;;;;;;4985256;28;20030;-85
2023/09/08 00:30:28;;;;;;;9.65;5.85;;;;;;;;;;4983916;28;20077;-86
2023/09/08 00:32:53;;;;;;;11.75;6.40;;;;;;;;;;4972385;28;20030;-86
2023/09/08 00:35:19;;;;;;;8.05;5.85;;;;;;;;;;4974315;28;20022;-85
2023/09/08 00:37:44;;;;;;;7.85;5.88;;;;;;;;;;4984965;28;20035;-85
2023/09/08 00:40:10;;;;;;;7.60;5.88;;;;;;;;;;4985399;28;20735;-86
2023/09/08 00:42:36;;;;;;;7.82;6.13;;;;;;;;;;4968502;28;20026;-86
2023/09/08 00:45:01;;;;;;;8.60;5.68;;;;;;;;;;4967283;28;20439;-85
2023/09/08 00:47:26;;;;;;;8.35;6.00;;;;;;;;;;4967968;28;20142;-86
2023/09/08 00:49:52;;;;;;;8.80;5.63;;;;;;;;;;4971394;28;20026;-85
2023/09/08 00:52:17;;;;;;;7.15;5.80;;;;;;;;;;4984183;28;20057;-87
2023/09/08 00:54:43;;;;;;;9.00;6.25;;;;;;;;;;4986218;28;20471;-86
2023/09/08 00:57:09;;;;;;;8.60;6.00;;;;;;;;;;4970834;28;20034;-82
2023/09/08 00:59:35;;;;;;;7.80;6.05;;;;;;;;;;4967635;28;20026;-82
2023/09/08 01:02:02;;;;;;;7.60;5.93;;;;;;;;;;4974653;28;20497;-82
2023/09/08 01:04:28;;;;;;;7.43;5.80;;;;;;;;;;4986671;28;20027;-82
2023/09/08 01:06:55;;;;;;;8.45;5.80;;;;;;;;;;4971520;28;20397;-82
2023/09/08 01:09:21;;;;;;;7.90;5.25;;;;;;;;;;4988258;28;20042;-82
2023/09/08 01:11:47;;;;;;;8.38;6.00;;;;;;;;;;4990992;28;20367;-82
2023/09/08 01:14:13;;;;;;;7.53;5.80;;;;;;;;;;4988299;28;20026;-83
2023/09/08 01:16:40;;;;;;;6.68;5.70;;;;;;;;;;4973514;28;20073;-82
2023/09/08 01:19:10;;;;;;;7.63;5.40;;;;;;;;;;4988447;28;20022;-82
2023/09/08 01:22:09;;;;;;;8.45;6.03;;;;;;;;;;4987577;28;20413;-82
2023/09/08 01:25:09;;;;;;;7.60;6.30;;;;;;;;;;4988809;28;20053;-82
2023/09/08 01:27:37;;;;;;;8.02;6.25;;;;;;;;;;4974447;28;20034;-82
2023/09/08 01:30:05;;;;;;;8.25;6.15;;;;;;;;;;4972860;28;20669;-83
2023/09/08 01:32:31;;;;;;;7.32;6.00;;;;;;;;;;4972079;28;20394;-82
2023/09/08 01:34:58;;;;;;;8.98;5.68;;;;;;;;;;4986977;28;20025;-82
2023/09/08 01:37:24;;;;;;;6.90;5.57;;;;;;;;;;4972306;28;20022;-83
2023/09/08 01:39:49;;;;;;;8.02;6.45;;;;;;;;;;4976106;28;20042;-82
2023/09/08 01:42:14;;;;;;;10.35;6.10;;;;;;;;;;4974300;28;20034;-82
2023/09/08 01:44:40;;;;;;;7.55;6.28;;;;;;;;;;4972132;28;20034;-82
2023/09/08 01:47:05;;;;;;;8.93;6.55;;;;;;;;;;4978971;28;20034;-85
2023/09/08 01:49:30;;;;;;;8.00;6.13;;;;;;;;;;4989212;28;20034;-84
2023/09/08 01:51:56;;;;;;;7.88;6.35;;;;;;;;;;4970072;28;20030;-85
2023/09/08 01:54:21;;;;;;;8.18;6.72;;;;;;;;;;4992780;28;20030;-83
2023/09/08 01:56:47;;;;;;;9.00;6.80;;;;;;;;;;4986571;28;20062;-85
2023/09/08 01:59:12;;;;;;;7.85;6.50;;;;;;;;;;4987462;28;20026;-85
2023/09/08 02:01:37;;;;;;;10.63;6.68;;;;;;;;;;4973699;28;20041;-86
2023/09/08 02:04:03;;;;;;;7.53;6.38;;;;;;;;;;4989049;28;20101;-86
2023/09/08 02:06:28;;;;;;;9.52;7.30;;;;;;;;;;4974860;28;20081;-86
2023/09/08 02:08:54;;;;;;;8.43;6.90;;;;;;;;;;4973973;28;20541;-86
2023/09/08 02:11:19;;;;;;;10.30;6.63;;;;;;;;;;4976041;28;20538;-86
2023/09/08 02:13:45;;;;;;;7.95;6.07;;;;;;;;;;4990480;28;20034;-86
2023/09/08 02:16:14;;;;;;;7.50;5.85;;;;;;;;;;4988620;28;20030;-85
2023/09/08 02:18:41;;;;;;;7.32;6.15;;;;;;;;;;4991070;28;20226;-87
2023/09/08 02:21:07;;;;;;;10.13;6.20;;;;;;;;;;4991989;28;20080;-85
2023/09/08 02:23:32;;;;;;;8.57;6.18;;;;;;;;;;4972869;28;20493;-86
2023/09/08 02:25:57;;;;;;;7.85;6.82;;;;;;;;;;4973103;28;20053;-85
2023/09/08 02:28:23;;;;;;;9.73;6.10;;;;;;;;;;4974158;28;20029;-85
2023/09/08 02:30:48;;;;;;;9.27;6.13;;;;;;;;;;4983133;28;20018;-86
2023/09/08 02:33:14;;;;;;;8.65;6.53;;;;;;;;;;4970079;28;20121;-85
2023/09/08 02:35:39;;;;;;;8.63;6.70;;;;;;;;;;4965073;28;20058;-87
2023/09/08 02:38:05;;;;;;;7.90;6.38;;;;;;;;;;4986663;28;20026;-85
2023/09/08 02:40:30;;;;;;;9.05;6.75;;;;;;;;;;4983582;28;20026;-85
2023/09/08 02:42:56;;;;;;;7.65;5.90;;;;;;;;;;4991932;28;20038;-86
2023/09/08 02:45:21;;;;;;;7.32;5.75;;;;;;;;;;4983307;28;20822;-86
2023/09/08 02:47:46;;;;;;;10.00;7.22;;;;;;;;;;4969476;28;20064;-86
2023/09/08 02:50:12;;;;;;;7.90;6.72;;;;;;;;;;4970052;28;20180;-85
2023/09/08 02:52:37;;;;;;;7.07;5.93;;;;;;;;;;4965025;28;20054;-84
2023/09/08 02:55:03;;;;;;;7.55;6.35;;;;;;;;;;4988537;28;20026;-86
2023/09/08 02:57:28;;;;;;;8.27;5.80;;;;;;;;;;4969411;28;20124;-86
2023/09/08 02:59:56;;;;;;;8.32;6.28;;;;;;;;;;4971813;28;20058;-85
2023/09/08 03:02:22;;;;;;;7.50;5.93;;;;;;;;;;4988055;28;20055;-86
2023/09/08 03:04:47;;;;;;;8.77;5.97;;;;;;;;;;4990452;28;20034;-86
2023/09/08 03:07:13;;;;;;;8.10;6.30;;;;;;;;;;4971974;28;20441;-86
2023/09/08 03:09:38;;;;;;;8.25;6.20;;;;;;;;;;4968264;28;20474;-86
2023/09/08 03:12:04;;;;;;;8.43;6.10;;;;;;;;;;4973730;28;20081;-86
2023/09/08 03:14:29;;;;;;;7.93;6.10;;;;;;;;;;4987976;28;20987;-84
2023/09/08 03:16:55;;;;;;;8.77;6.88;;;;;;;;;;4968282;28;20029;-85
2023/09/08 03:19:20;;;;;;;8.55;6.25;;;;;;;;;;4969673;28;20104;-86
2023/09/08 03:21:45;;;;;;;8.68;6.18;;;;;;;;;;4971894;28;20049;-86
2023/09/08 03:24:11;;;;;;;7.63;6.30;;;;;;;;;;4983919;28;20065;-85
2023/09/08 03:26:36;;;;;;;9.38;6.13;;;;;;;;;;4965854;28;20018;-85
2023/09/08 03:29:01;;;;;;;9.77;6.10;;;;;;;;;;4968310;28;20085;-86
2023/09/08 03:31:27;;;;;;;7.85;6.25;;;;;;;;;;4987179;28;20037;-85
2023/09/08 03:33:52;;;;;;;7.93;6.53;;;;;;;;;;4967251;28;20034;-86
2023/09/08 03:36:18;;;;;;;7.38;5.43;;;;;;;;;;4968855;28;20495;-85
2023/09/08 03:38:43;;;;;;;8.85;5.47;;;;;;;;;;4968744;28;20048;-86
2023/09/08 03:41:09;;;;;;;8.38;6.00;;;;;;;;;;4972665;28;20026;-85
2023/09/08 03:43:34;;;;;;;7.28;6.15;;;;;;;;;;4970554;28;20486;-86
2023/09/08 03:45:59;;;;;;;8.43;6.10;;;;;;;;;;4964297;28;20594;-85
2023/09/08 03:48:25;;;;;;;7.53;6.28;;;;;;;;;;4983968;28;20080;-86
2023/09/08 03:50:50;;;;;;;8.57;6.28;;;;;;;;;;4966819;28;20125;-85
2023/09/08 03:53:15;;;;;;;8.20;6.57;;;;;;;;;;4988228;28;20025;-84
2023/09/08 03:55:41;;;;;;;9.85;5.93;;;;;;;;;;4965787;28;20105;-86
2023/09/08 03:58:06;;;;;;;8.38;6.10;;;;;;;;;;4972626;28;20625;-84
2023/09/08 04:00:32;;;;;;;8.15;6.35;;;;;;;;;;4967976;28;20095;-86
2023/09/08 04:02:57;;;;;;;9.00;6.03;;;;;;;;;;4983335;28;20026;-86
2023/09/08 04:05:22;;;;;;;8.82;6.07;;;;;;;;;;4972089;28;20045;-86
2023/09/08 04:07:48;;;;;;;7.70;5.72;;;;;;;;;;4969032;28;20078;-84
2023/09/08 04:10:14;;;;;;;7.68;6.30;;;;;;;;;;4981858;28;20069;-85
2023/09/08 04:12:39;;;;;;;8.07;6.55;;;;;;;;;;4968827;28;20030;-85
2023/09/08 04:15:06;;;;;;;8.65;6.15;;;;;;;;;;4985206;28;20096;-85
2023/09/08 04:17:31;;;;;;;8.05;6.60;;;;;;;;;;4968260;28;21979;-86
2023/09/08 04:19:57;;;;;;;8.40;6.07;;;;;;;;;;4969711;28;20554;-85
2023/09/08 04:22:22;;;;;;;8.63;6.47;;;;;;;;;;4967531;28;20478;-86
2023/09/08 04:24:47;;;;;;;7.90;6.50;;;;;;;;;;4982636;28;20486;-85
2023/09/08 04:27:13;;;;;;;8.05;6.20;;;;;;;;;;4987387;28;20390;-85
2023/09/08 04:29:38;;;;;;;8.05;6.28;;;;;;;;;;4969033;28;20036;-86
2023/09/08 04:32:08;;;;;;;9.95;6.43;;;;;;;;;;4969730;28;20025;-86
2023/09/08 04:34:36;;;;;;;7.90;6.53;;;;;;;;;;4985171;28;20131;-86
2023/09/08 04:37:02;;;;;;;8.35;7.05;;;;;;;;;;4985756;28;20036;-84
2023/09/08 04:39:27;;;;;;;10.75;7.03;;;;;;;;;;4967198;28;20113;-85
2023/09/08 04:41:52;;;;;;;9.50;7.03;;;;;;;;;;4983096;28;20022;-86
2023/09/08 04:44:18;;;;;;;11.13;7.03;;;;;;;;;;4966212;28;20042;-85
2023/09/08 04:46:43;;;;;;;9.40;7.28;;;;;;;;;;4982940;28;20030;-86
2023/09/08 04:49:08;;;;;;;9.73;6.88;;;;;;;;;;4970800;28;21141;-85
2023/09/08 04:51:34;;;;;;;8.52;6.65;;;;;;;;;;4965840;28;20030;-86
2023/09/08 04:53:59;;;;;;;10.02;6.68;;;;;;;;;;4983855;28;20372;-83
2023/09/08 04:56:25;;;;;;;9.07;6.82;;;;;;;;;;4974692;28;20018;-87
2023/09/08 04:58:50;;;;;;;10.65;7.10;;;;;;;;;;4986397;28;20037;-85
2023/09/08 05:01:16;;;;;;;9.13;7.20;;;;;;;;;;4971845;28;20033;-86
2023/09/08 05:03:41;;;;;;;10.02;7.00;;;;;;;;;;4971702;28;20022;-85
2023/09/08 05:06:06;;;;;;;9.30;7.07;;;;;;;;;;4990258;28;20034;-85
2023/09/08 05:08:32;;;;;;;9.88;7.40;;;;;;;;;;4994404;28;20036;-86
2023/09/08 05:10:57;;;;;;;9.65;7.05;;;;;;;;;;4997332;28;20031;-86
2023/09/08 05:13:26;;;;;;;8.70;6.68;;;;;;;;;;4987958;28;20026;-85
2023/09/08 05:15:52;;;;;;;8.00;6.72;;;;;;;;;;4972573;28;20039;-86
2023/09/08 05:18:17;;;;;;;9.30;7.40;;;;;;;;;;4991249;28;20537;-86
2023/09/08 05:20:43;;;;;;;8.73;7.10;;;;;;;;;;4975917;28;20026;-85
2023/09/08 05:23:08;;;;;;;9.88;7.90;;;;;;;;;;4973238;28;20052;-86
2023/09/08 05:25:33;;;;;;;10.15;6.63;;;;;;;;;;4972748;28;20026;-87
2023/09/08 05:28:00;;;;;;;9.60;7.07;;;;;;;;;;4989912;28;20405;-85
2023/09/08 05:30:25;;;;;;;9.68;7.85;;;;;;;;;;4987131;28;20745;-85
2023/09/08 05:32:51;;;;;;;9.88;7.90;;;;;;;;;;4965779;28;20041;-80
2023/09/08 05:35:16;;;;;;;10.52;7.53;;;;;;;;;;4967525;28;20113;-80
2023/09/08 05:37:41;;;;;;;9.15;7.60;;;;;;;;;;4973685;28;20025;-80
2023/09/08 05:40:07;;;;;;;11.05;8.77;;;;;;;;;;4987067;28;20038;-80
2023/09/08 05:42:33;;;;;;;11.35;8.07;;;;;;;;;;4971553;28;20069;-80
2023/09/08 05:44:58;;;;;;;11.70;8.20;;;;;;;;;;4974019;28;20038;-81
2023/09/08 05:47:23;;;;;;;12.38;8.60;;;;;;;;;;4969457;28;20026;-81
2023/09/08 05:49:49;;;;;;;10.25;8.45;;;;;;;;;;4969908;28;20084;-80
2023/09/08 05:52:14;;;;;;;11.88;9.25;;;;;;;;;;4988644;28;20114;-86
2023/09/08 05:54:39;;;;;;;12.65;8.45;;;;;;;;;;4968484;28;20022;-86
2023/09/08 05:57:06;;;;;;;10.60;8.52;;;;;;;;;;4970281;28;20437;-85
2023/09/08 05:59:31;;;;;;;12.82;8.30;;;;;;;;;;4990274;28;20497;-85
2023/09/08 06:01:56;;;;;;;10.43;8.02;;;;;;;;;;4983362;28;20031;-86
2023/09/08 06:04:22;;;;;;;12.48;9.10;;;;;;;;;;4966358;28;20037;-86
2023/09/08 06:06:47;;;;;;;11.15;8.82;;;;;;;;;;4971797;28;20023;-85
2023/09/08 06:09:14;;;;;;;10.65;8.30;;;;;;;;;;4989696;28;20088;-87
2023/09/08 06:11:40;;;;;;;10.73;8.88;;;;;;;;;;4972819;28;20900;-86
2023/09/08 06:14:05;;;;;;;11.57;9.32;;;;;;;;;;4990942;28;20037;-86
2023/09/08 06:16:30;;;;;;;11.27;8.88;;;;;;;;;;4991643;28;20030;-86
2023/09/08 06:18:56;;;;;;;13.98;9.18;;;;;;;;;;4973063;28;20386;-86
2023/09/08 06:21:21;;;;;;;11.57;8.93;;;;;;;;;;4976358;28;20022;-84
2023/09/08 06:23:47;;;;;;;13.77;9.27;;;;;;;;;;4990598;28;20364;-86
2023/09/08 06:26:15;;;;;;;11.55;8.30;;;;;;;;;;4976741;28;20052;-86
2023/09/08 06:28:43;;;;;;;10.90;8.75;;;;;;;;;;4999010;28;20026;-86
2023/09/08 06:31:11;;;;;;;9.52;7.85;;;;;;;;;;4994674;28;20108;-86
2023/09/08 06:33:41;;;;;;;11.55;9.20;;;;;;;;;;4981046;28;20541;-85
2023/09/08 06:36:15;;;;;;;14.38;10.05;;;;;;;;;;4974516;28;20065;-86
2023/09/08 06:38:41;;;;;;;11.07;8.15;;;;;;;;;;4994975;28;20351;-86
2023/09/08 06:41:11;;;;;;;11.48;9.20;;;;;;;;;;4976949;28;20030;-87
2023/09/08 06:43:36;;;;;;;12.38;8.23;;;;;;;;;;4988660;28;20022;-86
2023/09/08 06:46:02;;;;;;;12.40;9.50;;;;;;;;;;4969791;28;20759;-86
2023/09/08 06:48:29;;;;;;;12.38;8.73;;;;;;;;;;4971558;28;20026;-86
2023/09/08 06:50:56;;;;;;;12.50;9.02;;;;;;;;;;4969655;28;20042;-85
2023/09/08 06:53:22;;;;;;;11.13;8.52;;;;;;;;;;4994523;28;20026;-86
2023/09/08 06:55:47;;;;;;;12.65;9.77;;;;;;;;;;4970868;28;20027;-83
2023/09/08 06:58:14;;;;;;;12.82;9.70;;;;;;;;;;4990971;28;20141;-84
2023/09/08 07:00:41;;;;;;;13.73;10.50;;;;;;;;;;4976449;28;20429;-84
2023/09/08 07:03:07;;;;;;;13.40;10.18;;;;;;;;;;4975692;28;20058;-83
2023/09/08 07:05:38;;;;;;;12.20;10.02;;;;;;;;;;4986448;28;20022;-82
2023/09/08 07:08:06;;;;;;;11.75;10.07;;;;;;;;;;4973478;28;20728;-83
2023/09/08 07:10:31;;;;;;;11.52;10.00;;;;;;;;;;4967358;28;20038;-83
2023/09/08 07:12:56;;;;;;;14.35;10.63;;;;;;;;;;4976077;28;20041;-83
2023/09/08 07:15:22;;;;;;;13.95;10.70;;;;;;;;;;4973381;28;20038;-86
2023/09/08 07:17:47;;;;;;;12.85;10.50;;;;;;;;;;4973027;28;20049;-85
2023/09/08 07:20:12;;;;;;;13.45;10.25;;;;;;;;;;4980848;28;20088;-85
2023/09/08 07:22:38;;;;;;;14.10;10.32;;;;;;;;;;4982592;28;20049;-86
2023/09/08 07:25:04;;;;;;;15.00;10.00;;;;;;;;;;4986762;28;20026;-87
2023/09/08 07:27:29;;;;;;;13.60;10.45;;;;;;;;;;4993314;28;20367;-87
2023/09/08 07:29:54;;;;;;;12.90;10.20;;;;;;;;;;4993124;28;20493;-86
2023/09/08 07:32:20;;;;;;;12.05;9.85;;;;;;;;;;4974917;28;20189;-87
2023/09/08 07:34:45;;;;;;;12.68;9.65;;;;;;;;;;4991298;28;20033;-87
2023/09/08 07:37:11;;;;;;;12.93;9.45;;;;;;;;;;4976219;28;20026;-86
2023/09/08 07:39:36;;;;;;;13.15;9.75;;;;;;;;;;4974241;28;20387;-81
2023/09/08 07:42:02;;;;;;;16.17;10.00;;;;;;;;;;4971952;28;20445;-82
2023/09/08 07:44:28;;;;;;;12.10;9.40;;;;;;;;;;4973890;28;20042;-81
2023/09/08 07:46:55;;;;;;;17.80;9.68;;;;;;;;;;4968144;28;20034;-83
2023/09/08 07:49:21;;;;;;;13.60;10.38;;;;;;;;;;4986076;28;20470;-81
2023/09/08 07:51:48;;;;;;;13.05;9.13;;;;;;;;;;4970554;28;20045;-82
2023/09/08 07:54:13;;;;;;;13.70;9.13;;;;;;;;;;4984456;28;20023;-82
2023/09/08 07:56:40;;;;;;;11.02;8.52;;;;;;;;;;4984410;28;20022;-82
2023/09/08 07:59:06;;;;;;;10.50;8.25;;;;;;;;;;4988050;28;20037;-82
2023/09/08 08:01:32;;;;;;;10.52;8.15;;;;;;;;;;4969731;28;20026;-82
2023/09/08 08:03:57;;;;;;;9.32;7.72;;;;;;;;;;4970297;28;20052;-83
2023/09/08 08:06:23;;;;;;;11.98;7.88;;;;;;;;;;4987853;28;20026;-81
2023/09/08 08:08:48;;;;;;;12.85;8.40;;;;;;;;;;4989523;28;20473;-81
2023/09/08 08:11:15;;;;;;;11.55;7.53;;;;;;;;;;4973458;28;20030;-87
2023/09/08 08:13:40;;;;;;;10.52;8.23;;;;;;;;;;4989951;28;20026;-84
2023/09/08 08:16:06;;;;;;;10.07;8.38;;;;;;;;;;4990411;28;20041;-84
2023/09/08 08:18:31;;;;;;;11.00;7.82;;;;;;;;;;4973668;28;20034;-84
2023/09/08 08:20:57;;;;;;;11.68;8.68;;;;;;;;;;4986439;28;20042;-84
2023/09/08 08:23:23;;;;;;;10.13;8.27;;;;;;;;;;4968718;28;20030;-83
2023/09/08 08:25:49;;;;;;;10.60;8.90;;;;;;;;;;4965549;28;20137;-83
2023/09/08 08:28:17;;;;;;;11.32;8.10;;;;;;;;;;4977626;28;20147;-81
2023/09/08 08:30:43;;;;;;;11.75;8.15;;;;;;;;;;4990601;28;20032;-82
2023/09/08 08:33:08;;;;;;;11.73;7.88;;;;;;;;;;4989273;28;20018;-82
2023/09/08 08:35:33;;;;;;;11.10;8.00;;;;;;;;;;4969129;28;20026;-81
2023/09/08 08:38:02;;;;;;;10.52;7.13;;;;;;;;;;4990930;28;20542;-82
2023/09/08 08:40:28;;;;;;;11.70;8.68;;;;;;;;;;4974859;28;20085;-81
2023/09/08 08:42:57;;;;;;;12.45;8.70;;;;;;;;;;4971249;28;20042;-82
2023/09/08 08:45:24;;;;;;;9.35;7.55;;;;;;;;;;4974709;28;20026;-82
2023/09/08 08:47:53;;;;;;;7.95;7.13;;;;;;;;;;4985189;28;20462;-82
2023/09/08 08:50:19;;;;;;;10.30;8.85;;;;;;;;;;4990029;28;20449;-82
2023/09/08 08:52:45;;;;;;;9.30;7.78;;;;;;;;;;4987685;28;20434;-82
2023/09/08 08:55:11;;;;;;;12.70;8.68;;;;;;;;;;4975456;28;20231;-82
2023/09/08 08:57:40;;;;;;;9.98;7.90;;;;;;;;;;4975302;28;20022;-81
2023/09/08 09:00:11;;;;;;;9.55;8.25;;;;;;;;;;4981592;28;20026;-82
2023/09/08 09:02:40;;;;;;;11.18;8.85;;;;;;;;;;4989122;28;20034;-82
2023/09/08 09:05:11;;;;;;;12.75;8.90;;;;;;;;;;4977248;28;20030;-82
2023/09/08 09:07:37;;;;;;;10.35;9.15;;;;;;;;;;4988872;28;20030;-82
2023/09/08 09:10:03;;;;;;;9.90;8.05;;;;;;;;;;4975375;28;20038;-82
2023/09/08 09:12:29;;;;;;;8.68;7.30;;;;;;;;;;4992693;28;20482;-81
2023/09/08 09:14:54;;;;;;;15.05;8.55;;;;;;;;;;4987051;28;20080;-82
2023/09/08 09:17:20;;;;;;;11.57;7.00;;;;;;;;;;4976252;28;20026;-81
2023/09/08 09:19:46;;;;;;;7.13;5.80;;;;;;;;;;4991637;28;20034;-83
2023/09/08 09:22:11;;;;;;;8.80;5.88;;;;;;;;;;4988582;28;20734;-82
2023/09/08 09:24:41;;;;;;;8.73;5.80;;;;;;;;;;4994826;28;20159;-81
2023/09/08 09:27:07;;;;;;;7.53;5.50;;;;;;;;;;4978287;28;20030;-82
2023/09/08 09:29:33;;;;;;;6.55;5.05;;;;;;;;;;4991837;28;20451;-82
2023/09/08 09:32:07;;;;;;;8.77;6.38;;;;;;;;;;4969178;28;20084;-82
2023/09/08 09:34:47;;;;;;;8.07;6.07;;;;;;;;;;4981032;28;20022;-82
2023/09/08 09:37:15;;;;;;;7.00;6.00;;;;;;;;;;4964243;28;20437;-84
2023/09/08 09:39:49;;;;;;;7.90;6.15;;;;;;;;;;4977802;28;20107;-83
2023/09/08 09:42:15;;;;;;;8.13;6.30;;;;;;;;;;4988581;28;20050;-84
2023/09/08 09:44:40;;;;;;;9.43;6.38;;;;;;;;;;4975733;28;20030;-84
2023/09/08 09:47:06;;;;;;;6.60;5.50;;;;;;;;;;4993022;28;20037;-84
2023/09/08 09:49:32;;;;;;;9.20;6.80;;;;;;;;;;4974997;28;20019;-84
2023/09/08 09:51:58;;;;;;;9.57;5.97;;;;;;;;;;4979179;28;20410;-84
2023/09/08 09:54:23;;;;;;;8.75;5.65;;;;;;;;;;4975571;28;20470;-84
2023/09/08 09:56:51;;;;;;;7.95;5.40;;;;;;;;;;4975539;28;20029;-84
2023/09/08 09:59:17;;;;;;;8.90;7.10;;;;;;;;;;4989347;28;20029;-84
2023/09/08 10:01:43;;;;;;;9.20;5.60;;;;;;;;;;4975166;28;20038;-84
2023/09/08 10:04:10;;;;;;;6.95;5.15;;;;;;;;;;4989635;28;20667;-83
2023/09/08 10:06:37;;;;;;;10.27;5.93;;;;;;;;;;4970733;28;20026;-83
2023/09/08 10:09:05;;;;;;;7.53;5.97;;;;;;;;;;4976483;28;20033;-84
2023/09/08 10:11:46;;;;;;;7.15;5.50;;;;;;;;;;4995420;28;20506;-84
2023/09/08 10:14:13;;;;;;;7.30;5.80;;;;;;;;;;4975967;28;20121;-84
2023/09/08 10:16:42;;;;;;;10.13;6.13;;;;;;;;;;4994659;28;20019;-84
2023/09/08 10:19:09;;;;;;;9.23;5.32;;;;;;;;;;5001079;28;20547;-84
2023/09/08 10:21:41;;;;;;;8.75;6.25;;;;;;;;;;4973025;28;20034;-84
2023/09/08 10:24:15;;;;;;;8.10;5.95;;;;;;;;;;4987692;28;20111;-84
2023/09/08 10:26:46;;;;;;;10.43;5.97;;;;;;;;;;4971445;28;20554;-84
2023/09/08 10:29:12;;;;;;;9.45;5.80;;;;;;;;;;4972255;28;20033;-84
2023/09/08 10:31:39;;;;;;;7.70;5.65;;;;;;;;;;4971806;28;20371;-84
2023/09/08 10:34:05;;;;;;;6.93;5.90;;;;;;;;;;4987508;28;20505;-84
2023/09/08 10:36:31;;;;;;;7.32;5.65;;;;;;;;;;4991541;28;20052;-84
2023/09/08 10:39:36;;;;;;;7.55;5.95;;;;;;;;;;4987845;28;20034;-84
2023/09/08 10:42:16;;;;;;;8.80;5.90;;;;;;;;;;4985000;28;20526;-84
2023/09/08 10:44:43;;;;;;;7.85;4.95;;;;;;;;;;4987257;28;20031;-84
2023/09/08 10:47:09;;;;;;;6.32;5.20;;;;;;;;;;4968401;28;20026;-84
2023/09/08 10:49:35;;;;;;;8.55;5.40;;;;;;;;;;4989435;28;20367;-84
2023/09/08 10:52:12;;;;;;;8.02;5.70;;;;;;;;;;4971574;28;20052;-84
2023/09/08 10:54:42;;;;;;;7.18;5.68;;;;;;;;;;4995405;28;20474;-84
2023/09/08 10:57:13;;;;;;;8.60;6.22;;;;;;;;;;4990260;28;20037;-84
2023/09/08 10:59:38;;;;;;;7.32;5.40;;;;;;;;;;4993171;28;20026;-84
2023/09/08 11:02:30;;;;;;;7.93;5.93;;;;;;;;;;4974613;28;20538;-85
2023/09/08 11:04:55;;;;;;;7.80;4.85;;;;;;;;;;4975568;28;20038;-86
2023/09/08 11:07:21;;;;;;;6.38;4.85;;;;;;;;;;4993689;28;20398;-86
2023/09/08 11:09:46;;;;;;;6.10;4.93;;;;;;;;;;4978432;28;20054;-86
2023/09/08 11:12:11;;;;;;;6.03;4.88;;;;;;;;;;4975328;28;20053;-86
2023/09/08 11:14:43;;;;;;;6.03;4.85;;;;;;;;;;4991718;28;20034;-86
2023/09/08 11:17:10;;;;;;;8.07;5.03;;;;;;;;;;4975299;28;20048;-84
2023/09/08 11:19:49;;;;;;;5.97;4.57;;;;;;;;;;4975615;28;20041;-85
2023/09/08 11:22:18;;;;;;;5.95;4.75;;;;;;;;;;4991059;28;20459;-85
2023/09/08 11:24:44;;;;;;;10.15;5.10;;;;;;;;;;4993889;28;20129;-85
2023/09/08 11:27:11;;;;;;;7.93;4.80;;;;;;;;;;4977766;28;20030;-84
2023/09/08 11:29:37;;;;;;;5.28;4.68;;;;;;;;;;4974359;28;20391;-85
2023/09/08 11:32:05;;;;;;;5.75;4.72;;;;;;;;;;4976603;28;20022;-85
2023/09/08 11:34:32;;;;;;;7.43;4.85;;;;;;;;;;4976370;28;20038;-84
2023/09/08 11:36:57;;;;;;;10.60;5.47;;;;;;;;;;4972220;28;20497;-85
2023/09/08 11:39:25;;;;;;;10.02;5.82;;;;;;;;;;4975366;28;20065;-86
2023/09/08 11:41:51;;;;;;;6.93;5.00;;;;;;;;;;4989620;28;20100;-85
2023/09/08 11:44:20;;;;;;;5.80;4.53;;;;;;;;;;4985837;28;21081;-85
2023/09/08 11:46:48;;;;;;;7.88;4.50;;;;;;;;;;4956449;28;20042;-85
2023/09/08 11:49:13;;;;;;;6.25;4.20;;;;;;;;;;4973069;28;20027;-84
2023/09/08 11:51:38;;;;;;;5.93;5.00;;;;;;;;;;4989585;28;20026;-85
2023/09/08 11:54:04;;;;;;;9.02;5.20;;;;;;;;;;4971507;28;20037;-84
2023/09/08 11:56:34;;;;;;;8.80;5.30;;;;;;;;;;4991839;28;20032;-84
2023/09/08 11:59:04;;;;;;;6.07;4.60;;;;;;;;;;4991322;28;20435;-85
2023/09/08 12:01:29;;;;;;;7.90;5.93;;;;;;;;;;4989414;28;20033;-86
2023/09/08 12:03:55;;;;;;;8.85;6.03;;;;;;;;;;4972873;28;20156;-86
2023/09/08 12:06:27;;;;;;;8.48;4.97;;;;;;;;;;4990918;28;20077;-85
2023/09/08 12:09:02;;;;;;;9.02;5.40;;;;;;;;;;4983750;28;20502;-86
2023/09/08 12:11:35;;;;;;;6.50;4.70;;;;;;;;;;4991751;28;20052;-86
2023/09/08 12:14:01;;;;;;;6.60;5.00;;;;;;;;;;4987320;28;20085;-87
2023/09/08 12:16:26;;;;;;;6.15;4.57;;;;;;;;;;4990286;28;20034;-86
2023/09/08 12:18:55;;;;;;;8.32;4.60;;;;;;;;;;4976576;28;20018;-86
2023/09/08 12:21:20;;;;;;;6.68;5.10;;;;;;;;;;4975954;28;20038;-85
2023/09/08 12:23:50;;;;;;;7.82;4.60;;;;;;;;;;4988411;28;20030;-85
2023/09/08 12:26:16;;;;;;;7.07;4.80;;;;;;;;;;4986279;28;20037;-86
2023/09/08 12:28:49;;;;;;;9.02;4.50;;;;;;;;;;4973159;28;20034;-87
2023/09/08 12:31:15;;;;;;;5.63;4.95;;;;;;;;;;4991973;28;20113;-85
2023/09/08 12:33:43;;;;;;;7.88;4.88;;;;;;;;;;4973047;28;20034;-85
2023/09/08 12:36:18;;;;;;;6.25;4.50;;;;;;;;;;4983105;28;20430;-86
2023/09/08 12:38:51;;;;;;;6.45;4.85;;;;;;;;;;4991133;28;20497;-86
2023/09/08 12:41:17;;;;;;;5.93;4.53;;;;;;;;;;4975914;28;20030;-85
2023/09/08 12:43:43;;;;;;;5.75;4.30;;;;;;;;;;4978726;28;20085;-86
2023/09/08 12:46:09;;;;;;;6.15;4.25;;;;;;;;;;4987806;28;20478;-83
2023/09/08 12:48:35;;;;;;;5.30;4.28;;;;;;;;;;4988285;28;20040;-83
2023/09/08 12:51:00;;;;;;;6.30;4.20;;;;;;;;;;4970745;28;20038;-83
2023/09/08 12:53:25;;;;;;;6.50;4.43;;;;;;;;;;4978484;28;20065;-83
2023/09/08 12:55:51;;;;;;;5.40;4.50;;;;;;;;;;4974789;28;20040;-83
2023/09/08 12:58:16;;;;;;;7.93;4.40;;;;;;;;;;4979132;28;20042;-83
2023/09/08 13:00:45;;;;;;;7.47;4.55;;;;;;;;;;4989231;28;20026;-83
2023/09/08 13:03:10;;;;;;;6.50;4.55;;;;;;;;;;4992531;28;20030;-82
2023/09/08 13:05:38;;;;;;;6.70;4.80;;;;;;;;;;4974180;28;20045;-82
2023/09/08 13:08:04;;;;;;;5.47;4.38;;;;;;;;;;4983308;28;20080;-82
2023/09/08 13:10:29;;;;;;;5.72;4.50;;;;;;;;;;4975050;28;20390;-83
2023/09/08 13:12:55;;;;;;;8.45;4.72;;;;;;;;;;4990453;28;20033;-82
2023/09/08 13:15:20;;;;;;;6.97;5.07;;;;;;;;;;4978300;28;20462;-83
2023/09/08 13:17:45;;;;;;;6.07;4.93;;;;;;;;;;4982637;28;20030;-83
2023/09/08 13:20:12;;;;;;;6.15;4.55;;;;;;;;;;4979764;28;20022;-83
2023/09/08 13:22:37;;;;;;;7.28;4.88;;;;;;;;;;4980124;28;20037;-83
2023/09/08 13:25:05;;;;;;;5.70;4.70;;;;;;;;;;4977895;28;20381;-86
2023/09/08 13:27:30;;;;;;;8.90;5.43;;;;;;;;;;4980242;28;20041;-86
2023/09/08 13:30:11;;;;;;;9.27;4.50;;;;;;;;;;4973820;28;20498;-85
2023/09/08 13:32:36;;;;;;;5.88;4.78;;;;;;;;;;4968127;28;20139;-85
2023/09/08 13:35:02;;;;;;;8.15;5.03;;;;;;;;;;4981902;28;20568;-85
2023/09/08 13:37:29;;;;;;;6.68;4.95;;;;;;;;;;4990535;28;20033;-85
2023/09/08 13:39:54;;;;;;;8.93;4.85;;;;;;;;;;4986176;28;20049;-85
2023/09/08 13:42:19;;;;;;;5.13;4.45;;;;;;;;;;4992845;28;20042;-86
2023/09/08 13:44:48;;;;;;;7.50;4.82;;;;;;;;;;4976222;28;20449;-85
2023/09/08 13:47:13;;;;;;;6.55;4.82;;;;;;;;;;4973175;28;20085;-85
2023/09/08 13:49:39;;;;;;;5.53;4.93;;;;;;;;;;4976362;28;20414;-85
2023/09/08 13:52:05;;;;;;;6.57;4.70;;;;;;;;;;4995147;28;20030;-85
2023/09/08 13:54:32;;;;;;;6.20;4.82;;;;;;;;;;4977012;28;20022;-85
2023/09/08 13:57:00;;;;;;;6.63;5.00;;;;;;;;;;4976472;28;20041;-85
2023/09/08 13:59:26;;;;;;;7.18;5.15;;;;;;;;;;4975889;28;20487;-83
2023/09/08 14:01:53;;;;;;;7.13;4.80;;;;;;;;;;4994308;28;20050;-83
2023/09/08 14:04:19;;;;;;;5.65;4.35;;;;;;;;;;4975564;28;20045;-83
2023/09/08 14:06:44;;;;;;;5.78;4.88;;;;;;;;;;4995024;28;20026;-82
2023/09/08 14:09:09;;;;;;;6.05;4.47;;;;;;;;;;4975216;28;20033;-82
2023/09/08 14:11:39;;;;;;;5.20;4.70;;;;;;;;;;4991105;28;20061;-83
2023/09/08 14:14:04;;;;;;;6.55;4.88;;;;;;;;;;4973344;28;20265;-83
2023/09/08 14:16:29;;;;;;;6.82;5.10;;;;;;;;;;4973250;28;20430;-82
2023/09/08 14:18:55;;;;;;;8.23;5.13;;;;;;;;;;4989834;28;20026;-85
2023/09/08 14:21:20;;;;;;;6.25;5.00;;;;;;;;;;4973332;28;20072;-85
2023/09/08 14:23:46;;;;;;;5.88;4.70;;;;;;;;;;4992208;28;20467;-85
2023/09/08 14:26:12;;;;;;;9.40;5.28;;;;;;;;;;4972645;28;20026;-85
2023/09/08 14:28:40;;;;;;;7.45;4.82;;;;;;;;;;4976476;28;20029;-85
2023/09/08 14:31:05;;;;;;;8.48;5.10;;;;;;;;;;4973933;28;20045;-85
2023/09/08 14:33:31;;;;;;;6.47;4.70;;;;;;;;;;4978298;28;20049;-85
2023/09/08 14:35:56;;;;;;;6.38;4.65;;;;;;;;;;4972977;28;20022;-85